createdAt,value
2019-02-09T00:01:24.918Z,21.53
2019-02-09T00:03:54.283Z,18.67
2019-02-09T00:06:23.669Z,23.00
2019-02-09T00:08:53.055Z,16.13
2019-02-09T00:11:22.395Z,17.10
2019-02-09T00:13:51.924Z,19.70
2019-02-09T00:16:21.380Z,14.63
2019-02-09T00:18:50.758Z,15.50
2019-02-09T00:21:20.247Z,16.90
2019-02-09T00:23:49.673Z,19.53
2019-02-09T00:26:38.543Z,16.17
2019-02-09T00:29:09.663Z,19.63
2019-02-09T00:31:39.122Z,20.10
2019-02-09T00:34:08.498Z,17.60
2019-02-09T00:36:37.957Z,19.23
2019-02-09T00:39:08.575Z,20.07
2019-02-09T00:41:37.934Z,18.17
2019-02-09T00:44:07.299Z,17.67
2019-02-09T00:46:36.677Z,20.70
2019-02-09T00:49:06.091Z,20.37
2019-02-09T00:51:35.538Z,19.00
2019-02-09T00:54:04.948Z,18.77
2019-02-09T00:56:34.292Z,17.93
2019-02-09T00:59:03.706Z,17.40
2019-02-09T01:01:34.318Z,16.37
2019-02-09T01:04:03.838Z,19.80
2019-02-09T01:06:33.278Z,18.23
2019-02-09T01:09:02.674Z,19.63
2019-02-09T01:11:32.077Z,21.50
2019-02-09T01:14:01.520Z,19.50
2019-02-09T01:16:30.985Z,19.47
2019-02-09T01:19:00.369Z,19.30
2019-02-09T01:21:29.862Z,17.37
2019-02-09T01:23:59.604Z,18.47
2019-02-09T01:26:29.520Z,15.87
2019-02-09T01:28:59.014Z,17.53
2019-02-09T01:31:28.340Z,17.10
2019-02-09T01:33:57.746Z,13.90
2019-02-09T01:36:27.191Z,15.97
2019-02-09T01:38:56.540Z,13.87
2019-02-09T01:41:25.964Z,13.20
2019-02-09T01:43:55.397Z,12.47
2019-02-09T01:46:24.774Z,14.80
2019-02-09T01:48:54.229Z,14.77
2019-02-09T01:51:23.742Z,13.47
2019-02-09T01:53:53.105Z,13.03
2019-02-09T01:56:22.455Z,11.30
2019-02-09T01:58:51.963Z,9.63
2019-02-09T02:01:21.495Z,11.67
2019-02-09T02:03:50.844Z,9.17
2019-02-09T02:06:20.325Z,10.90
2019-02-09T02:08:49.757Z,10.87
2019-02-09T02:11:19.141Z,11.53
2019-02-09T02:13:48.546Z,11.60
2019-02-09T02:16:17.958Z,10.53
2019-02-09T02:18:47.372Z,12.83
2019-02-09T02:21:16.755Z,10.50
2019-02-09T02:23:46.104Z,9.47
2019-02-09T02:26:15.459Z,10.63
2019-02-09T02:28:44.851Z,11.00
2019-02-09T02:31:14.199Z,11.57
2019-02-09T02:33:43.594Z,10.73
2019-02-09T02:36:13.038Z,10.40
2019-02-09T02:38:42.400Z,10.33
2019-02-09T02:41:11.911Z,10.23
2019-02-09T02:43:41.310Z,11.13
2019-02-09T02:46:10.819Z,12.37
2019-02-09T02:48:40.229Z,10.67
2019-02-09T02:51:09.722Z,10.83
2019-02-09T02:53:39.054Z,9.83
2019-02-09T02:56:08.491Z,11.37
2019-02-09T02:58:37.890Z,11.10
2019-02-09T03:01:07.205Z,10.87
2019-02-09T03:03:36.634Z,13.23
2019-02-09T03:06:06.107Z,11.20
2019-02-09T03:08:35.454Z,14.10
2019-02-09T03:11:04.966Z,11.93
2019-02-09T03:13:34.364Z,12.70
2019-02-09T03:16:03.791Z,11.53
2019-02-09T03:18:33.189Z,13.87
2019-02-09T03:21:02.572Z,11.63
2019-02-09T03:23:31.954Z,11.23
2019-02-09T03:26:01.456Z,17.10
2019-02-09T03:28:31.185Z,13.37
2019-02-09T03:31:00.555Z,11.03
2019-02-09T03:33:29.997Z,13.27
2019-02-09T03:35:59.358Z,11.67
2019-02-09T03:38:28.727Z,11.57
2019-02-09T03:40:58.148Z,9.87
2019-02-09T03:43:27.501Z,13.17
2019-02-09T03:45:56.877Z,13.70
2019-02-09T03:48:26.309Z,10.87
2019-02-09T03:50:55.996Z,13.67
2019-02-09T03:53:25.350Z,14.23
2019-02-09T03:55:54.738Z,12.80
2019-02-09T03:58:24.089Z,13.47
2019-02-09T04:00:55.443Z,13.53
2019-02-09T04:03:24.691Z,11.73
2019-02-09T04:05:54.133Z,14.67
2019-02-09T04:08:23.504Z,12.30
2019-02-09T04:10:52.846Z,12.30
2019-02-09T04:13:22.225Z,13.17
2019-02-09T04:15:51.742Z,13.27
2019-02-09T04:18:21.072Z,12.13
2019-02-09T04:20:50.465Z,15.17
2019-02-09T04:23:19.853Z,13.03
2019-02-09T04:25:49.213Z,14.27
2019-02-09T04:28:18.578Z,11.50
2019-02-09T04:30:48.029Z,12.57
2019-02-09T04:33:17.396Z,17.43
2019-02-09T04:35:46.781Z,21.47
2019-02-09T04:38:16.209Z,15.90
2019-02-09T04:40:45.548Z,17.07
2019-02-09T04:43:14.886Z,15.57
2019-02-09T04:45:44.251Z,18.70
2019-02-09T04:48:13.602Z,19.73
2019-02-09T04:50:43.004Z,18.27
2019-02-09T04:53:12.412Z,21.20
2019-02-09T04:55:41.791Z,21.87
2019-02-09T04:58:11.152Z,18.87
2019-02-09T05:00:40.555Z,21.13
2019-02-09T05:03:09.870Z,24.20
2019-02-09T05:05:39.302Z,22.87
2019-02-09T05:08:08.735Z,22.47
2019-02-09T05:10:38.085Z,21.43
2019-02-09T05:13:07.435Z,21.10
2019-02-09T05:15:37.149Z,22.57
2019-02-09T05:18:06.939Z,24.97
2019-02-09T05:20:36.284Z,25.60
2019-02-09T05:23:05.857Z,24.90
2019-02-09T05:25:35.251Z,23.57
2019-02-09T05:28:04.667Z,27.20
2019-02-09T05:30:34.075Z,26.03
2019-02-09T05:33:03.390Z,25.40
2019-02-09T05:35:32.793Z,32.60
2019-02-09T05:38:02.246Z,30.03
2019-02-09T05:40:31.572Z,29.97
2019-02-09T05:43:00.958Z,26.70
2019-02-09T05:45:31.005Z,27.27
2019-02-09T05:48:00.392Z,32.47
2019-02-09T05:50:29.806Z,29.00
2019-02-09T05:52:59.241Z,29.00
2019-02-09T05:55:28.625Z,29.57
2019-02-09T05:57:58.066Z,30.10
2019-02-09T06:00:32.151Z,27.87
2019-02-09T06:03:01.574Z,30.07
2019-02-09T06:05:30.999Z,30.20
2019-02-09T06:08:00.401Z,32.30
2019-02-09T06:10:29.860Z,31.80
2019-02-09T06:12:59.297Z,31.47
2019-02-09T06:15:29.275Z,31.03
2019-02-09T06:17:58.704Z,29.97
2019-02-09T06:20:28.382Z,32.73
2019-02-09T06:22:58.022Z,29.53
2019-02-09T06:25:27.525Z,35.97
2019-02-09T06:27:56.993Z,34.67
2019-02-09T06:30:27.960Z,34.13
2019-02-09T06:32:57.484Z,30.30
2019-02-09T06:35:26.964Z,31.10
2019-02-09T06:37:56.471Z,27.07
2019-02-09T06:40:25.907Z,33.43
2019-02-09T06:42:55.320Z,32.63
2019-02-09T06:45:25.118Z,30.00
2019-02-09T06:47:56.090Z,26.33
2019-02-09T06:50:28.696Z,29.73
2019-02-09T06:52:58.030Z,29.30
2019-02-09T06:55:27.485Z,31.00
2019-02-09T06:57:56.977Z,30.53
2019-02-09T07:00:26.347Z,30.63
2019-02-09T07:02:55.863Z,28.67
2019-02-09T07:05:25.318Z,24.77
2019-02-09T07:07:54.783Z,29.37
2019-02-09T07:10:24.834Z,27.03
2019-02-09T07:12:54.396Z,27.30
2019-02-09T07:15:25.983Z,28.30
2019-02-09T07:17:55.702Z,29.03
2019-02-09T07:20:25.090Z,25.20
2019-02-09T07:22:54.939Z,24.97
2019-02-09T07:25:24.759Z,25.87
2019-02-09T07:27:54.169Z,25.50
2019-02-09T07:30:25.699Z,21.03
2019-02-09T07:32:55.669Z,28.13
2019-02-09T07:35:25.128Z,25.67
2019-02-09T07:37:54.641Z,24.07
2019-02-09T07:40:24.571Z,19.40
2019-02-09T07:42:54.166Z,21.33
2019-02-09T07:45:25.342Z,19.80
2019-02-09T07:47:54.833Z,22.77
2019-02-09T07:50:25.129Z,22.60
2019-02-09T07:52:54.502Z,22.67
2019-02-09T07:55:24.048Z,21.10
2019-02-09T07:57:53.640Z,21.70
2019-02-09T08:00:24.960Z,19.50
2019-02-09T08:02:54.624Z,21.07
2019-02-09T08:05:26.446Z,19.20
2019-02-09T08:07:55.810Z,20.87
2019-02-09T08:10:27.374Z,25.77
2019-02-09T08:12:57.318Z,29.43
2019-02-09T08:15:28.434Z,20.67
2019-02-09T08:17:57.788Z,21.93
2019-02-09T08:20:28.152Z,19.30
2019-02-09T08:22:58.600Z,22.50
2019-02-09T08:25:29.821Z,23.67
2019-02-09T08:27:59.548Z,21.70
2019-02-09T08:30:40.572Z,21.00
2019-02-09T08:33:10.259Z,17.87
2019-02-09T08:35:40.385Z,28.10
2019-02-09T08:38:11.223Z,23.90
2019-02-09T08:40:40.724Z,21.50
2019-02-09T08:43:10.133Z,23.27
2019-02-09T08:45:39.555Z,21.13
2019-02-09T08:48:08.908Z,23.23
2019-02-09T08:50:44.130Z,26.87
2019-02-09T08:53:13.676Z,23.27
2019-02-09T08:55:43.027Z,21.47
2019-02-09T08:58:12.428Z,28.37
2019-02-09T09:00:41.878Z,29.67
2019-02-09T09:03:11.240Z,32.03
2019-02-09T09:05:40.630Z,22.73
2019-02-09T09:08:10.199Z,27.10
2019-02-09T09:10:39.658Z,23.50
2019-02-09T09:13:09.017Z,25.97
2019-02-09T09:15:43.777Z,29.63
2019-02-09T09:18:13.220Z,25.27
2019-02-09T09:20:45.576Z,24.90
2019-02-09T09:23:14.987Z,26.93
2019-02-09T09:25:44.450Z,21.53
2019-02-09T09:28:14.031Z,29.30
2019-02-09T09:30:43.380Z,30.83
2019-02-09T09:33:12.802Z,99.57
2019-02-09T09:35:42.201Z,23.80
2019-02-09T09:38:11.570Z,21.93
2019-02-09T09:40:41.847Z,26.57
2019-02-09T09:43:11.264Z,30.30
2019-02-09T09:45:41.057Z,25.27
2019-02-09T09:48:12.661Z,20.67
2019-02-09T09:50:42.139Z,24.80
2019-02-09T09:53:11.575Z,27.50
2019-02-09T09:55:41.187Z,23.57
2019-02-09T09:58:10.686Z,21.13
2019-02-09T10:00:40.041Z,23.50
2019-02-09T10:03:10.792Z,24.33
2019-02-09T10:05:40.419Z,26.83
2019-02-09T10:08:11.262Z,24.50
2019-02-09T10:10:52.672Z,26.13
2019-02-09T10:13:22.057Z,28.50
2019-02-09T10:15:51.440Z,22.60
2019-02-09T10:18:20.910Z,22.30
2019-02-09T10:20:50.294Z,21.63
2019-02-09T10:23:19.634Z,27.43
2019-02-09T10:25:49.073Z,25.30
2019-02-09T10:28:18.559Z,24.20
2019-02-09T10:30:47.955Z,21.07
2019-02-09T10:33:17.314Z,29.47
2019-02-09T10:35:46.949Z,23.80
2019-02-09T10:38:16.443Z,24.70
2019-02-09T10:40:45.853Z,25.93
2019-02-09T10:43:15.365Z,25.27
2019-02-09T10:45:44.928Z,23.43
2019-02-09T10:48:16.495Z,24.17
2019-02-09T10:50:46.798Z,22.80
2019-02-09T10:53:16.518Z,22.80
2019-02-09T10:55:45.881Z,25.50
2019-02-09T10:58:15.268Z,21.00
2019-02-09T11:00:57.250Z,22.33
2019-02-09T11:03:26.881Z,28.73
2019-02-09T11:05:56.323Z,22.73
2019-02-09T11:08:25.739Z,24.13
2019-02-09T11:10:55.114Z,22.67
2019-02-09T11:13:24.703Z,22.90
2019-02-09T11:15:54.093Z,22.27
2019-02-09T11:18:24.063Z,22.10
2019-02-09T11:20:53.464Z,24.23
2019-02-09T11:23:22.885Z,28.13
2019-02-09T11:25:52.382Z,24.87
2019-02-09T11:28:21.853Z,28.67
2019-02-09T11:30:51.284Z,26.57
2019-02-09T11:33:20.760Z,26.77
2019-02-09T11:35:50.694Z,25.03
2019-02-09T11:38:20.111Z,22.93
2019-02-09T11:40:52.130Z,22.73
2019-02-09T11:43:21.537Z,29.47
2019-02-09T11:45:50.937Z,22.63
2019-02-09T11:48:20.686Z,27.20
2019-02-09T11:50:50.105Z,24.17
2019-02-09T11:53:19.514Z,26.63
2019-02-09T11:55:49.804Z,24.63
2019-02-09T11:58:19.259Z,26.70
2019-02-09T12:00:51.336Z,26.43
2019-02-09T12:03:20.723Z,23.50
2019-02-09T12:05:50.070Z,25.87
2019-02-09T12:08:19.455Z,27.00
2019-02-09T12:10:49.234Z,26.07
2019-02-09T12:13:18.646Z,26.30
2019-02-09T12:15:48.071Z,29.23
2019-02-09T12:18:17.449Z,26.77
2019-02-09T12:20:46.915Z,28.87
2019-02-09T12:23:16.323Z,26.20
2019-02-09T12:25:45.722Z,28.60
2019-02-09T12:28:15.210Z,28.10
2019-02-09T12:30:44.667Z,28.77
2019-02-09T12:33:22.580Z,30.33
2019-02-09T12:35:45.464Z,26.10
2019-02-09T12:38:14.882Z,30.40
2019-02-09T12:40:44.278Z,25.77
2019-02-09T12:43:13.632Z,22.93
2019-02-09T12:45:43.596Z,25.77
2019-02-09T12:48:15.803Z,22.37
2019-02-09T12:50:46.159Z,24.83
2019-02-09T12:53:16.867Z,26.97
2019-02-09T12:55:47.309Z,27.90
2019-02-09T12:58:17.560Z,32.47
2019-02-09T13:00:46.936Z,24.37
2019-02-09T13:03:18.969Z,27.47
2019-02-09T13:05:48.257Z,29.30
2019-02-09T13:08:17.893Z,27.27
2019-02-09T13:10:47.282Z,27.23
2019-02-09T13:13:17.638Z,25.57
2019-02-09T13:15:47.027Z,26.37
2019-02-09T13:18:16.521Z,29.23
2019-02-09T13:20:45.895Z,30.57
2019-02-09T13:23:15.681Z,31.97
2019-02-09T13:25:45.129Z,30.00
2019-02-09T13:28:15.459Z,33.20
2019-02-09T13:30:44.995Z,29.13
2019-02-09T13:33:14.795Z,30.43
2019-02-09T13:35:44.780Z,31.53
2019-02-09T13:38:14.193Z,32.97
2019-02-09T13:40:43.766Z,33.10
2019-02-09T13:43:13.294Z,25.10
2019-02-09T13:45:48.275Z,29.63
2019-02-09T13:48:17.727Z,28.47
2019-02-09T13:50:47.107Z,30.40
2019-02-09T13:53:16.542Z,28.43
2019-02-09T13:55:46.292Z,28.60
2019-02-09T13:58:15.828Z,30.20
2019-02-09T14:00:45.230Z,28.20
2019-02-09T14:03:14.674Z,26.63
2019-02-09T14:05:43.981Z,27.77
2019-02-09T14:08:13.487Z,26.97
2019-02-09T14:10:42.975Z,31.20
2019-02-09T14:13:14.657Z,28.83
2019-02-09T14:15:43.538Z,33.20
2019-02-09T14:18:13.174Z,28.37
2019-02-09T14:20:42.647Z,30.33
2019-02-09T14:23:12.129Z,31.93
2019-02-09T14:25:41.551Z,26.80
2019-02-09T14:28:11.168Z,28.73
2019-02-09T14:30:40.887Z,29.07
2019-02-09T14:33:11.032Z,29.87
2019-02-09T14:35:41.452Z,31.30
2019-02-09T14:38:11.573Z,28.10
2019-02-09T14:40:40.950Z,24.57
2019-02-09T14:43:10.915Z,31.70
2019-02-09T14:45:45.583Z,34.60
2019-02-09T14:48:15.104Z,30.60
2019-02-09T14:50:45.162Z,32.77
2019-02-09T14:53:45.537Z,28.47
2019-02-09T14:56:33.941Z,31.23
2019-02-09T14:59:11.910Z,27.03
2019-02-09T15:01:41.607Z,29.17
2019-02-09T15:04:11.128Z,29.60
2019-02-09T15:06:40.547Z,31.73
2019-02-09T15:09:10.769Z,28.27
2019-02-09T15:11:40.605Z,29.33
2019-02-09T15:14:10.019Z,23.57
2019-02-09T15:16:52.076Z,27.90
2019-02-09T15:19:28.032Z,26.80
2019-02-09T15:21:57.826Z,32.03
2019-02-09T15:24:27.225Z,31.73
2019-02-09T15:26:56.676Z,28.00
2019-02-09T15:29:26.293Z,26.87
2019-02-09T15:31:55.885Z,27.27
2019-02-09T15:34:25.310Z,28.47
2019-02-09T15:36:54.647Z,25.63
2019-02-09T15:39:24.053Z,26.73
2019-02-09T15:41:53.454Z,25.53
2019-02-09T15:44:22.862Z,29.10
2019-02-09T15:46:52.332Z,25.47
2019-02-09T15:49:21.704Z,30.20
2019-02-09T15:51:51.077Z,28.17
2019-02-09T15:54:20.487Z,40.40
2019-02-09T15:56:49.968Z,46.27
2019-02-09T15:59:19.409Z,28.63
2019-02-09T16:01:48.871Z,35.77
2019-02-09T16:04:18.352Z,39.53
2019-02-09T16:06:47.686Z,29.57
2019-02-09T16:09:17.127Z,32.33
2019-02-09T16:11:46.437Z,32.87
2019-02-09T16:14:15.775Z,47.43
2019-02-09T16:16:45.252Z,38.17
2019-02-09T16:19:14.687Z,43.60
2019-02-09T16:21:44.135Z,39.60
2019-02-09T16:24:13.535Z,56.63
2019-02-09T16:26:42.898Z,38.77
2019-02-09T16:29:12.525Z,36.13
2019-02-09T16:31:41.974Z,44.70
2019-02-09T16:34:11.377Z,41.93
2019-02-09T16:36:40.812Z,41.77
2019-02-09T16:39:11.511Z,42.83
2019-02-09T16:41:40.945Z,47.10
2019-02-09T16:44:10.323Z,40.17
2019-02-09T16:46:39.656Z,46.30
2019-02-09T16:49:09.061Z,45.10
2019-02-09T16:51:38.520Z,55.57
2019-02-09T16:54:14.140Z,55.50
2019-02-09T16:56:43.850Z,59.10
2019-02-09T16:59:13.388Z,51.43
2019-02-09T17:01:44.152Z,56.13
2019-02-09T17:04:15.162Z,48.77
2019-02-09T17:06:44.857Z,64.97
2019-02-09T17:09:14.698Z,66.27
2019-02-09T17:11:44.637Z,56.60
2019-02-09T17:14:14.263Z,69.10
2019-02-09T17:16:43.991Z,68.17
2019-02-09T17:19:13.762Z,76.23
2019-02-09T17:21:43.675Z,69.87
2019-02-09T17:24:13.510Z,85.37
2019-02-09T17:26:43.541Z,72.10
2019-02-09T17:29:34.759Z,67.83
2019-02-09T17:32:09.119Z,71.97
2019-02-09T17:34:51.013Z,70.37
2019-02-09T17:37:38.359Z,91.50
2019-02-09T17:40:10.800Z,84.77
2019-02-09T17:42:53.623Z,96.00
2019-02-09T17:45:30.217Z,115.63
2019-02-09T17:47:59.850Z,101.47
2019-02-09T17:50:29.202Z,104.10
2019-02-09T17:53:00.292Z,88.47
2019-02-09T17:55:29.925Z,69.93
2019-02-09T17:57:59.390Z,93.87
2019-02-09T18:00:38.454Z,86.87
2019-02-09T18:03:09.040Z,99.07
2019-02-09T18:05:39.063Z,103.27
2019-02-09T18:08:12.449Z,90.30
2019-02-09T18:10:46.473Z,94.60
2019-02-09T18:13:18.264Z,98.57
2019-02-09T18:15:47.652Z,103.47
2019-02-09T18:18:18.288Z,111.00
2019-02-09T18:20:47.846Z,120.70
2019-02-09T18:23:17.183Z,104.10
2019-02-09T18:25:52.621Z,107.90
2019-02-09T18:28:22.156Z,122.40
2019-02-09T18:30:51.586Z,165.87
2019-02-09T18:33:21.647Z,159.90
2019-02-09T18:35:51.482Z,162.50
2019-02-09T18:38:20.922Z,141.67
2019-02-09T18:40:50.678Z,145.63
2019-02-09T18:43:20.136Z,134.90
2019-02-09T18:45:49.508Z,127.73
2019-02-09T18:48:19.095Z,116.37
2019-02-09T18:50:48.579Z,115.47
2019-02-09T18:53:17.966Z,108.07
2019-02-09T18:55:48.898Z,100.07
2019-02-09T18:58:19.803Z,104.83
2019-02-09T19:00:49.327Z,93.70
2019-02-09T19:03:20.818Z,87.43
2019-02-09T19:05:50.535Z,96.53
2019-02-09T19:08:19.989Z,113.07
2019-02-09T19:10:49.357Z,117.13
2019-02-09T19:13:18.789Z,108.37
2019-02-09T19:15:48.175Z,103.90
2019-02-09T19:18:17.684Z,103.83
2019-02-09T19:20:50.723Z,100.73
2019-02-09T19:23:20.182Z,79.67
2019-02-09T19:25:51.456Z,81.27
2019-02-09T19:28:20.792Z,95.60
2019-02-09T19:30:50.346Z,99.53
2019-02-09T19:33:20.310Z,98.70
2019-02-09T19:35:49.703Z,112.50
2019-02-09T19:38:19.126Z,118.33
2019-02-09T19:40:48.538Z,116.47
2019-02-09T19:43:17.912Z,127.73
2019-02-09T19:45:47.558Z,124.00
2019-02-09T19:48:17.122Z,145.20
2019-02-09T19:50:46.558Z,133.87
2019-02-09T19:53:15.923Z,144.70
2019-02-09T19:55:45.354Z,152.30
2019-02-09T19:58:14.818Z,169.77
2019-02-09T20:00:44.939Z,163.47
2019-02-09T20:03:14.384Z,189.40
2019-02-09T20:05:43.726Z,337.93
2019-02-09T20:08:13.528Z,343.00
2019-02-09T20:10:43.894Z,372.00
2019-02-09T20:13:13.507Z,226.80
2019-02-09T20:15:42.989Z,228.90
2019-02-09T20:18:12.528Z,264.67
2019-02-09T20:20:47.454Z,273.27
2019-02-09T20:23:13.293Z,325.37
2019-02-09T20:25:42.690Z,331.03
2019-02-09T20:28:12.131Z,273.20
2019-02-09T20:30:42.064Z,273.30
2019-02-09T20:33:11.514Z,271.37
2019-02-09T20:35:40.985Z,269.60
2019-02-09T20:38:10.784Z,251.77
2019-02-09T20:40:42.720Z,305.10
2019-02-09T20:43:13.766Z,321.10
2019-02-09T20:45:43.084Z,334.13
2019-02-09T20:48:12.731Z,320.53
2019-02-09T20:50:42.170Z,320.03
2019-02-09T20:53:12.282Z,309.50
2019-02-09T20:55:41.674Z,341.73
2019-02-09T20:58:12.705Z,307.70
2019-02-09T21:00:42.277Z,322.57
2019-02-09T21:03:11.606Z,374.87
2019-02-09T21:05:41.035Z,304.83
2019-02-09T21:08:10.786Z,257.90
2019-02-09T21:10:40.727Z,222.97
2019-02-09T21:13:10.233Z,227.43
2019-02-09T21:15:40.055Z,200.50
2019-02-09T21:18:09.524Z,194.80
2019-02-09T21:20:39.307Z,246.60
2019-02-09T21:23:09.012Z,281.70
2019-02-09T21:25:40.688Z,267.10
2019-02-09T21:28:16.609Z,251.53
2019-02-09T21:30:46.660Z,275.70
2019-02-09T21:33:18.638Z,269.93
2019-02-09T21:35:48.076Z,277.13
2019-02-09T21:38:17.566Z,315.17
2019-02-09T21:40:47.147Z,295.73
2019-02-09T21:43:16.814Z,311.17
2019-02-09T21:45:46.521Z,333.13
2019-02-09T21:48:16.611Z,324.83
2019-02-09T21:50:46.506Z,357.07
2019-02-09T21:53:16.249Z,331.97
2019-02-09T21:55:45.737Z,325.23
2019-02-09T21:58:15.385Z,326.43
2019-02-09T22:00:45.129Z,282.13
2019-02-09T22:03:15.366Z,369.80
2019-02-09T22:05:51.839Z,282.40
2019-02-09T22:08:19.569Z,215.30
2019-02-09T22:10:48.610Z,224.10
2019-02-09T22:13:18.076Z,159.20
2019-02-09T22:15:47.545Z,191.93
2019-02-09T22:18:16.989Z,212.57
2019-02-09T22:20:52.573Z,207.30
2019-02-09T22:23:17.574Z,207.73
2019-02-09T22:25:47.043Z,137.77
2019-02-09T22:28:16.464Z,188.37
2019-02-09T22:30:45.965Z,234.17
2019-02-09T22:33:24.051Z,198.70
2019-02-09T22:35:46.820Z,210.67
2019-02-09T22:38:16.164Z,204.07
2019-02-09T22:40:45.586Z,170.43
2019-02-09T22:43:15.002Z,153.20
2019-02-09T22:45:44.419Z,139.27
2019-02-09T22:48:13.787Z,119.77
2019-02-09T22:50:45.057Z,126.73
2019-02-09T22:53:14.815Z,104.80
2019-02-09T22:55:44.246Z,118.00
2019-02-09T22:58:15.484Z,103.70
2019-02-09T23:01:21.243Z,110.57
2019-02-09T23:04:03.136Z,119.90
2019-02-09T23:06:54.506Z,136.13
2019-02-09T23:09:26.125Z,151.27
2019-02-09T23:11:55.500Z,151.43
2019-02-09T23:14:24.851Z,128.83
2019-02-09T23:16:54.297Z,155.57
2019-02-09T23:19:23.730Z,144.97
2019-02-09T23:21:53.196Z,150.87
2019-02-09T23:24:22.663Z,135.00
2019-02-09T23:26:51.970Z,157.83
2019-02-09T23:29:21.288Z,161.80
2019-02-09T23:31:50.686Z,146.47
2019-02-09T23:34:20.164Z,147.57
2019-02-09T23:36:49.693Z,142.60
2019-02-09T23:39:19.074Z,131.30
2019-02-09T23:41:48.477Z,125.23
2019-02-09T23:44:17.781Z,106.37
2019-02-09T23:46:47.178Z,108.37
2019-02-09T23:49:16.552Z,115.97
2019-02-09T23:51:45.909Z,109.60
2019-02-09T23:54:15.265Z,107.43
2019-02-09T23:56:44.610Z,104.67
2019-02-09T23:59:13.935Z,117.00
